Time;durP1;ratioP1;P1;durP2;ratioP2;P2;SDS_P1;SDS_P2;PMS_P1;PMS_P2;Temp;Humidity;BMP_temperature;BMP_pressure;BME280_temperature;BME280_humidity;BME280_pressure;Samples;Min_cycle;Max_cycle;Signal;HPM_P1;HPM_P2
2022/08/29 00:02:55;;;;;;;6.57;5.43;;;25.60;77.20;;;;;;6114652;28;80711;-65
2022/08/29 00:05:55;;;;;;;8.68;6.30;;;25.60;77.10;;;;;;6110876;28;81307;-64
2022/08/29 00:08:56;;;;;;;6.97;5.38;;;25.60;77.10;;;;;;6101167;28;80422;-65
2022/08/29 00:11:56;;;;;;;5.50;4.57;;;25.60;77.00;;;;;;6103033;28;81386;-56
2022/08/29 00:14:57;;;;;;;7.57;5.20;;;25.70;76.50;;;;;;6100697;28;80373;-58
2022/08/29 00:17:57;;;;;;;9.27;5.80;;;25.60;76.80;;;;;;6129095;28;82047;-57
2022/08/29 00:20:58;;;;;;;7.32;5.38;;;25.60;76.70;;;;;;6123920;28;80924;-57
2022/08/29 00:23:58;;;;;;;8.60;5.82;;;25.50;76.90;;;;;;6125278;28;81100;-56
2022/08/29 00:27:00;;;;;;;9.85;6.05;;;25.50;77.20;;;;;;6125437;28;80288;-57
2022/08/29 00:30:01;;;;;;;6.60;5.45;;;25.50;77.40;;;;;;6116747;28;80592;-64
2022/08/29 00:33:01;;;;;;;6.35;5.13;;;25.50;77.10;;;;;;6117457;28;81001;-62
2022/08/29 00:36:02;;;;;;;7.90;5.70;;;25.60;77.00;;;;;;6122049;28;80388;-64
2022/08/29 00:39:02;;;;;;;7.22;5.43;;;25.50;77.10;;;;;;6123324;28;82909;-64
2022/08/29 00:42:03;;;;;;;9.93;5.32;;;25.50;77.20;;;;;;6123565;28;80166;-64
2022/08/29 00:45:03;;;;;;;11.55;5.85;;;25.50;77.00;;;;;;6158140;28;81926;-63
2022/08/29 00:48:04;;;;;;;8.65;5.32;;;25.50;76.80;;;;;;6126368;28;80131;-63
2022/08/29 00:51:04;;;;;;;7.18;4.97;;;25.60;76.60;;;;;;6138043;28;85841;-64
2022/08/29 00:54:05;;;;;;;9.15;6.30;;;25.70;76.30;;;;;;6121487;28;80202;-63
2022/08/29 00:57:05;;;;;;;6.53;5.10;;;25.80;75.90;;;;;;6124050;28;80820;-65
2022/08/29 01:00:06;;;;;;;9.68;5.82;;;25.70;75.80;;;;;;6123912;28;82637;-65
2022/08/29 01:03:06;;;;;;;7.25;5.45;;;25.60;76.00;;;;;;6111416;28;91538;-65
2022/08/29 01:06:07;;;;;;;9.18;6.15;;;25.50;76.60;;;;;;6123877;28;80679;-57
2022/08/29 01:09:08;;;;;;;9.40;5.45;;;25.40;77.10;;;;;;6123204;28;81618;-57
2022/08/29 01:12:14;;;;;;;8.10;5.10;;;25.50;76.80;;;;;;6124951;28;80600;-57
2022/08/29 01:15:15;;;;;;;8.43;5.57;;;25.30;77.30;;;;;;6117364;28;84337;-57
2022/08/29 01:18:15;;;;;;;9.40;6.25;;;25.10;78.30;;;;;;6111716;28;80292;-57
2022/08/29 01:21:16;;;;;;;10.88;7.07;;;24.80;79.70;;;;;;6125803;28;80579;-56
2022/08/29 01:24:17;;;;;;;9.85;6.47;;;24.70;80.50;;;;;;6137558;28;81417;-57
2022/08/29 01:27:17;;;;;;;10.30;6.43;;;24.60;81.20;;;;;;6121654;28;81987;-58
2022/08/29 01:30:18;;;;;;;8.43;5.43;;;24.70;80.90;;;;;;6118151;28;81372;-57
2022/08/29 01:33:19;;;;;;;12.00;6.20;;;24.70;80.90;;;;;;6122547;28;80442;-57
2022/08/29 01:36:19;;;;;;;13.18;7.00;;;24.60;81.40;;;;;;6123101;28;81050;-57
2022/08/29 01:39:20;;;;;;;11.02;6.18;;;24.50;81.60;;;;;;6124061;28;80068;-58
2022/08/29 01:42:21;;;;;;;11.57;5.43;;;24.60;81.20;;;;;;6121651;28;81466;-57
2022/08/29 01:45:21;;;;;;;13.25;5.65;;;24.70;81.20;;;;;;6123855;28;80566;-57
2022/08/29 01:48:22;;;;;;;9.18;5.00;;;24.50;81.80;;;;;;6122905;28;81545;-58
2022/08/29 01:51:23;;;;;;;7.43;4.75;;;24.30;83.10;;;;;;6123266;28;81024;-57
2022/08/29 01:54:23;;;;;;;7.82;5.05;;;24.50;82.20;;;;;;6122649;28;80960;-58
2022/08/29 01:57:24;;;;;;;8.48;4.07;;;24.60;81.30;;;;;;6109616;28;80338;-57
2022/08/29 02:00:24;;;;;;;8.10;4.68;;;24.80;80.90;;;;;;6109940;28;84181;-58
2022/08/29 02:03:26;;;;;;;6.85;4.70;;;24.90;80.10;;;;;;6123080;28;81045;-58
2022/08/29 02:06:26;;;;;;;8.10;4.93;;;25.10;79.40;;;;;;6119294;28;81430;-58
2022/08/29 02:09:27;;;;;;;6.72;4.65;;;25.00;79.40;;;;;;6120370;28;84143;-58
2022/08/29 02:12:28;;;;;;;5.32;3.90;;;25.00;79.10;;;;;;6141478;28;86466;-58
2022/08/29 02:15:29;;;;;;;6.28;4.30;;;25.10;78.60;;;;;;6138102;28;80969;-59
2022/08/29 02:18:30;;;;;;;5.75;4.45;;;25.20;78.20;;;;;;6133818;28;80374;-58
2022/08/29 02:21:31;;;;;;;10.20;5.55;;;25.30;77.70;;;;;;6123555;28;83683;-58
2022/08/29 02:24:31;;;;;;;6.03;4.13;;;25.00;78.40;;;;;;6126811;28;81695;-58
2022/08/29 02:27:32;;;;;;;7.82;5.45;;;25.10;78.70;;;;;;6123683;28;89882;-57
2022/08/29 02:30:33;;;;;;;6.85;5.20;;;25.10;78.70;;;;;;6121950;28;84754;-57
2022/08/29 02:33:33;;;;;;;7.00;5.47;;;25.20;78.30;;;;;;6112600;28;80916;-58
2022/08/29 02:36:34;;;;;;;10.23;6.55;;;25.20;78.00;;;;;;6134903;28;80370;-58
2022/08/29 02:39:34;;;;;;;9.18;5.97;;;25.20;77.80;;;;;;6138121;28;80581;-63
2022/08/29 02:42:35;;;;;;;9.68;5.72;;;25.20;78.00;;;;;;6142349;28;84061;-63
2022/08/29 02:45:35;;;;;;;16.38;5.93;;;25.20;77.90;;;;;;6118661;28;86862;-62
2022/08/29 02:48:36;;;;;;;9.38;5.90;;;25.20;77.70;;;;;;6129738;28;80792;-62
2022/08/29 02:51:36;;;;;;;10.98;6.03;;;25.20;77.70;;;;;;6149020;28;84075;-62
2022/08/29 02:54:37;;;;;;;9.15;6.60;;;25.20;77.60;;;;;;6152868;28;80865;-62
2022/08/29 02:57:38;;;;;;;12.10;6.72;;;25.10;77.60;;;;;;6130737;28;85862;-62
2022/08/29 03:00:38;;;;;;;12.80;6.45;;;25.20;77.50;;;;;;6126257;28;80923;-61
2022/08/29 03:03:39;;;;;;;9.00;6.28;;;25.30;77.40;;;;;;6147569;28;81137;-61
2022/08/29 03:06:39;;;;;;;11.52;6.93;;;25.30;77.00;;;;;;6126442;28;80558;-63
2022/08/29 03:09:40;;;;;;;10.48;6.50;;;25.20;77.30;;;;;;6110642;28;80511;-61
2022/08/29 03:12:40;;;;;;;17.00;6.90;;;25.30;77.00;;;;;;6131827;28;85889;-63
2022/08/29 03:15:41;;;;;;;11.57;7.57;;;25.30;76.70;;;;;;6125095;28;81255;-62
2022/08/29 03:18:42;;;;;;;9.55;7.15;;;25.30;76.80;;;;;;6137801;28;84521;-62
2022/08/29 03:21:43;;;;;;;15.45;7.68;;;25.40;76.40;;;;;;6146995;28;82973;-63
2022/08/29 03:24:43;;;;;;;11.85;8.02;;;25.50;76.00;;;;;;6148098;28;80404;-62
2022/08/29 03:27:44;;;;;;;13.50;7.93;;;25.50;75.70;;;;;;6147197;28;80517;-62
2022/08/29 03:30:45;;;;;;;12.63;8.35;;;25.50;75.40;;;;;;6145272;28;80413;-61
2022/08/29 03:33:46;;;;;;;11.25;7.80;;;25.60;75.30;;;;;;6149008;28;80366;-62
2022/08/29 03:36:46;;;;;;;14.20;8.82;;;25.60;75.30;;;;;;6132330;28;80345;-62
2022/08/29 03:39:47;;;;;;;17.00;8.55;;;25.60;75.20;;;;;;6147614;28;81499;-62
2022/08/29 03:42:47;;;;;;;12.52;8.68;;;25.60;75.20;;;;;;6141186;28;85976;-62
2022/08/29 03:45:48;;;;;;;19.10;8.77;;;25.60;75.10;;;;;;6125624;28;83561;-62
2022/08/29 03:48:49;;;;;;;12.50;8.30;;;25.50;75.60;;;;;;6144144;28;81065;-62
2022/08/29 03:51:49;;;;;;;12.48;8.88;;;25.50;75.60;;;;;;6125821;28;83847;-63
2022/08/29 03:54:50;;;;;;;18.65;9.23;;;25.40;75.70;;;;;;6137734;28;80796;-63
2022/08/29 03:57:50;;;;;;;15.30;9.05;;;25.50;75.60;;;;;;6126813;28;80640;-63
2022/08/29 04:00:51;;;;;;;13.95;8.43;;;25.50;75.30;;;;;;6136259;28;82440;-63
2022/08/29 04:03:51;;;;;;;13.55;8.55;;;25.50;75.10;;;;;;6140496;28;84328;-62
2022/08/29 04:06:52;;;;;;;12.75;8.20;;;25.40;75.70;;;;;;6141733;28;83351;-62
2022/08/29 04:09:52;;;;;;;13.55;8.40;;;25.50;75.50;;;;;;6140873;28;85306;-62
2022/08/29 04:12:53;;;;;;;12.90;8.05;;;25.50;75.30;;;;;;6133081;28;81047;-63
2022/08/29 04:15:53;;;;;;;11.77;8.20;;;25.50;75.60;;;;;;6143085;28;80344;-63
2022/08/29 04:18:54;;;;;;;11.68;7.78;;;25.50;75.40;;;;;;6115230;28;85076;-62
2022/08/29 04:21:55;;;;;;;15.13;7.57;;;25.60;75.30;;;;;;6115457;28;80934;-61
2022/08/29 04:24:56;;;;;;;14.98;8.15;;;25.60;75.20;;;;;;6123679;28;80411;-59
2022/08/29 04:27:57;;;;;;;13.15;8.05;;;25.70;75.20;;;;;;6114529;28;80885;-58
2022/08/29 04:30:57;;;;;;;14.80;8.63;;;25.70;74.90;;;;;;6117768;28;82701;-64
2022/08/29 04:33:57;;;;;;;13.45;8.57;;;25.70;74.60;;;;;;6123725;28;81449;-61
2022/08/29 04:36:58;;;;;;;13.48;8.75;;;25.80;74.60;;;;;;6102448;28;83015;-59
2022/08/29 04:39:59;;;;;;;14.65;7.90;;;25.80;74.50;;;;;;6099114;28;81231;-58
2022/08/29 04:43:00;;;;;;;17.35;8.48;;;25.90;74.50;;;;;;6090663;28;80775;-57
2022/08/29 04:46:00;;;;;;;11.60;7.15;;;25.90;74.30;;;;;;6090165;28;84198;-58
2022/08/29 04:49:01;;;;;;;15.80;8.23;;;25.90;74.00;;;;;;6085311;28;83082;-59
2022/08/29 04:52:01;;;;;;;16.05;8.30;;;25.90;74.10;;;;;;6093292;28;81849;-59
2022/08/29 04:55:02;;;;;;;15.98;8.07;;;25.90;73.80;;;;;;6083771;28;81211;-59
2022/08/29 04:58:02;;;;;;;16.30;8.35;;;25.90;73.70;;;;;;6115276;28;82684;-59
2022/08/29 05:01:03;;;;;;;13.43;8.27;;;25.90;73.70;;;;;;6106117;28;80616;-58
2022/08/29 05:04:04;;;;;;;18.08;8.23;;;25.90;73.60;;;;;;6104684;28;80256;-57
2022/08/29 05:07:04;;;;;;;17.55;9.05;;;25.90;73.60;;;;;;6105570;28;82306;-61
2022/08/29 05:10:05;;;;;;;14.35;8.70;;;26.00;73.30;;;;;;6121949;28;80785;-59
2022/08/29 05:13:05;;;;;;;16.38;8.95;;;25.90;73.40;;;;;;6100485;28;85219;-59
2022/08/29 05:16:06;;;;;;;14.02;8.02;;;25.90;73.40;;;;;;6114559;28;80812;-59
2022/08/29 05:19:06;;;;;;;17.45;9.77;;;25.90;73.50;;;;;;6119128;28;82083;-59
2022/08/29 05:22:07;;;;;;;15.90;8.30;;;25.90;73.70;;;;;;6113774;28;80793;-59
2022/08/29 05:25:07;;;;;;;20.27;7.50;;;25.90;73.40;;;;;;6121558;28;83680;-59
2022/08/29 05:28:10;;;;;;;12.90;7.90;;;25.90;73.60;;;;;;6106861;28;80568;-59
2022/08/29 05:31:13;;;;;;;13.68;8.52;;;25.90;73.30;;;;;;6114270;28;80490;-59
2022/08/29 05:34:13;;;;;;;20.27;9.73;;;25.90;73.20;;;;;;6122423;28;81335;-58
2022/08/29 05:37:14;;;;;;;20.17;10.57;;;25.90;73.20;;;;;;6121904;28;80675;-58
2022/08/29 05:40:14;;;;;;;13.82;9.18;;;26.00;72.90;;;;;;6118547;28;85754;-59
2022/08/29 05:43:15;;;;;;;14.20;8.50;;;26.00;73.00;;;;;;6125470;28;83602;-58
2022/08/29 05:46:15;;;;;;;15.15;8.98;;;25.90;73.10;;;;;;6124620;28;80544;-62
2022/08/29 05:49:16;;;;;;;19.38;8.32;;;25.90;73.30;;;;;;6101343;28;80753;-67
2022/08/29 05:52:16;;;;;;;30.13;9.65;;;25.70;73.90;;;;;;6109183;28;83080;-60
2022/08/29 05:55:17;;;;;;;21.55;10.65;;;25.70;73.90;;;;;;6138039;28;81217;-61
2022/08/29 05:58:17;;;;;;;20.50;9.90;;;25.70;74.20;;;;;;6101594;28;89106;-59
2022/08/29 06:01:18;;;;;;;17.55;9.25;;;25.60;75.00;;;;;;6091431;28;82936;-59
2022/08/29 06:04:18;;;;;;;13.75;7.97;;;25.50;74.70;;;;;;6096839;28;81002;-59
2022/08/29 06:07:19;;;;;;;14.40;8.43;;;25.40;75.20;;;;;;6086051;28;84092;-59
2022/08/29 06:10:19;;;;;;;17.52;8.80;;;25.50;74.70;;;;;;6100023;28;80582;-59
2022/08/29 06:13:20;;;;;;;17.38;9.13;;;25.40;74.90;;;;;;6095582;28;88312;-58
2022/08/29 06:16:20;;;;;;;15.82;7.68;;;25.40;74.70;;;;;;6112995;28;80369;-58
2022/08/29 06:19:21;;;;;;;16.33;9.70;;;25.40;74.80;;;;;;6113488;28;80469;-58
2022/08/29 06:22:22;;;;;;;16.73;8.15;;;25.20;75.00;;;;;;6117494;28;81312;-58
2022/08/29 06:25:22;;;;;;;23.42;8.35;;;25.10;75.60;;;;;;6096207;28;83624;-58
2022/08/29 06:28:22;;;;;;;22.05;8.25;;;25.20;75.80;;;;;;6106912;28;83477;-58
2022/08/29 06:31:25;;;;;;;21.73;9.18;;;25.20;75.20;;;;;;6116380;28;80614;-65
2022/08/29 06:34:26;;;;;;;17.30;8.77;;;25.20;75.10;;;;;;6092129;28;82640;-65
2022/08/29 06:37:26;;;;;;;19.48;8.23;;;25.30;75.40;;;;;;6099064;28;81281;-64
2022/08/29 06:40:27;;;;;;;16.08;8.60;;;25.20;76.10;;;;;;6076685;28;82858;-57
2022/08/29 06:43:27;;;;;;;17.77;8.95;;;25.10;75.90;;;;;;6126012;28;84415;-58
2022/08/29 06:46:28;;;;;;;18.02;8.73;;;25.20;76.20;;;;;;6115068;28;82517;-55
2022/08/29 06:49:28;;;;;;;14.90;8.63;;;25.30;75.60;;;;;;6119221;28;80125;-57
2022/08/29 06:52:29;;;;;;;18.65;8.05;;;25.30;75.60;;;;;;6117949;28;85645;-58
2022/08/29 06:55:29;;;;;;;10.88;7.65;;;25.40;75.20;;;;;;6121911;28;80437;-61
2022/08/29 06:58:30;;;;;;;14.35;7.65;;;25.40;75.00;;;;;;6115506;28;85948;-60
2022/08/29 07:01:30;;;;;;;21.00;9.68;;;25.40;75.80;;;;;;6121204;28;80577;-59
2022/08/29 07:04:31;;;;;;;14.52;8.93;;;25.50;75.10;;;;;;6115547;28;80769;-61
2022/08/29 07:07:32;;;;;;;16.55;9.30;;;25.40;74.60;;;;;;6117279;28;80578;-60
2022/08/29 07:10:33;;;;;;;14.55;7.85;;;25.40;75.00;;;;;;6116588;28;85172;-58
2022/08/29 07:13:34;;;;;;;25.17;9.02;;;25.40;74.90;;;;;;6099331;28;81413;-59
2022/08/29 07:16:34;;;;;;;12.00;7.25;;;25.40;75.00;;;;;;6099016;28;83027;-59
2022/08/29 07:19:35;;;;;;;13.57;7.78;;;25.40;74.80;;;;;;6089284;28;83988;-59
2022/08/29 07:22:35;;;;;;;16.70;8.73;;;25.40;74.80;;;;;;6093346;28;83887;-59
2022/08/29 07:25:35;;;;;;;14.05;7.72;;;25.30;74.90;;;;;;6087305;28;83912;-58
2022/08/29 07:28:36;;;;;;;12.52;7.18;;;25.30;75.00;;;;;;6095960;28;80412;-59
2022/08/29 07:31:38;;;;;;;9.50;6.15;;;25.40;74.70;;;;;;6118877;28;81037;-60
2022/08/29 07:34:38;;;;;;;20.17;6.28;;;25.40;74.30;;;;;;6151460;28;80302;-58
2022/08/29 07:37:39;;;;;;;10.80;7.15;;;25.40;74.40;;;;;;6152273;28;80687;-58
2022/08/29 07:40:39;;;;;;;10.60;6.28;;;25.40;74.00;;;;;;6149337;28;80500;-59
2022/08/29 07:43:40;;;;;;;14.13;6.68;;;25.40;74.40;;;;;;6150812;28;80677;-58
2022/08/29 07:46:41;;;;;;;16.73;7.38;;;25.40;74.00;;;;;;6134235;28;81520;-58
2022/08/29 07:49:41;;;;;;;12.63;6.80;;;25.40;73.50;;;;;;6129494;28;83307;-62
2022/08/29 07:52:41;;;;;;;11.00;6.72;;;25.40;73.60;;;;;;6136472;28;81002;-65
2022/08/29 07:55:42;;;;;;;16.13;6.70;;;25.30;73.30;;;;;;6132013;28;83388;-68
2022/08/29 07:58:43;;;;;;;9.50;6.35;;;25.40;73.30;;;;;;6148899;28;80305;-59
2022/08/29 08:01:43;;;;;;;8.65;6.07;;;25.30;73.40;;;;;;6138566;28;80364;-61
2022/08/29 08:04:44;;;;;;;7.90;5.70;;;25.30;73.00;;;;;;6127851;28;80835;-61
2022/08/29 08:07:44;;;;;;;14.00;7.32;;;25.30;72.90;;;;;;6149371;28;81404;-59
2022/08/29 08:10:45;;;;;;;10.13;5.57;;;25.40;73.30;;;;;;6147698;28;80229;-59
2022/08/29 08:13:46;;;;;;;11.77;5.80;;;25.30;73.10;;;;;;6147460;28;83138;-58
2022/08/29 08:16:46;;;;;;;9.93;5.47;;;25.30;72.70;;;;;;6147700;28;82408;-60
2022/08/29 08:19:47;;;;;;;14.18;5.70;;;25.30;73.00;;;;;;6148475;28;81410;-58
2022/08/29 08:22:47;;;;;;;14.30;5.95;;;25.50;72.50;;;;;;6122567;28;82035;-59
2022/08/29 08:25:48;;;;;;;16.98;6.32;;;25.60;72.10;;;;;;6138268;28;80417;-58
2022/08/29 08:28:48;;;;;;;17.40;6.07;;;25.80;71.80;;;;;;6133097;28;82282;-58
2022/08/29 08:31:49;;;;;;;11.63;5.78;;;25.80;71.10;;;;;;6127248;28;80367;-58
2022/08/29 08:34:50;;;;;;;13.20;5.22;;;26.00;71.20;;;;;;6150829;28;80414;-58
2022/08/29 08:37:52;;;;;;;6.88;4.40;;;26.10;70.60;;;;;;6130460;28;81475;-58
2022/08/29 08:40:52;;;;;;;8.95;4.07;;;26.10;69.80;;;;;;6135609;28;87407;-58
2022/08/29 08:43:53;;;;;;;9.02;5.35;;;26.10;68.20;;;;;;6107094;28;80500;-62
2022/08/29 08:46:53;;;;;;;11.40;5.05;;;26.00;69.30;;;;;;6092386;28;80082;-59
2022/08/29 08:49:54;;;;;;;9.70;5.45;;;26.00;68.80;;;;;;6092059;28;80574;-59
2022/08/29 08:52:56;;;;;;;17.65;5.20;;;26.00;68.30;;;;;;6092125;28;80550;-59
2022/08/29 08:55:58;;;;;;;7.00;4.78;;;26.00;68.90;;;;;;6098266;28;82075;-59
2022/08/29 08:58:59;;;;;;;8.40;5.10;;;25.90;68.30;;;;;;6107474;28;82712;-58
2022/08/29 09:01:59;;;;;;;9.65;6.65;;;26.00;68.70;;;;;;6133132;28;80204;-60
2022/08/29 09:05:00;;;;;;;7.47;5.60;;;25.90;67.40;;;;;;6116319;28;80831;-59
2022/08/29 09:08:00;;;;;;;9.68;5.90;;;25.60;67.60;;;;;;6089856;28;82364;-59
2022/08/29 09:11:02;;;;;;;11.93;6.05;;;25.70;67.80;;;;;;6103872;28;80828;-59
2022/08/29 09:14:02;;;;;;;7.88;4.93;;;25.60;68.10;;;;;;6114252;28;80253;-60
2022/08/29 09:17:03;;;;;;;7.60;4.43;;;25.80;67.90;;;;;;6114136;28;83779;-59
2022/08/29 09:20:03;;;;;;;10.73;4.72;;;25.90;67.10;;;;;;6110404;28;80481;-58
2022/08/29 09:23:04;;;;;;;6.75;4.20;;;26.10;66.50;;;;;;6100223;28;80315;-61
2022/08/29 09:26:05;;;;;;;16.80;4.00;;;26.10;66.40;;;;;;6105928;28;86872;-71
2022/08/29 09:29:08;;;;;;;7.45;4.50;;;26.20;64.90;;;;;;6113785;28;80265;-60
2022/08/29 09:32:09;;;;;;;8.85;5.05;;;26.30;65.40;;;;;;6120167;28;83079;-65
2022/08/29 09:35:09;;;;;;;5.50;3.92;;;26.20;64.30;;;;;;6117777;28;80142;-61
2022/08/29 09:38:10;;;;;;;10.38;5.05;;;26.10;64.30;;;;;;6125982;28;80540;-61
2022/08/29 09:41:10;;;;;;;10.73;5.30;;;26.30;65.00;;;;;;6113989;28;83092;-58
2022/08/29 09:44:11;;;;;;;7.85;5.30;;;26.30;64.50;;;;;;6122900;28;80354;-58
2022/08/29 09:47:11;;;;;;;8.23;4.78;;;26.10;64.10;;;;;;6119073;28;86239;-57
2022/08/29 09:50:12;;;;;;;14.15;5.10;;;26.30;64.20;;;;;;6125266;28;80811;-58
2022/08/29 09:53:13;;;;;;;7.25;4.78;;;26.30;64.40;;;;;;6109905;28;80894;-58
2022/08/29 09:56:14;;;;;;;8.95;5.20;;;26.40;63.90;;;;;;6120084;28;87286;-58
2022/08/29 09:59:15;;;;;;;12.32;4.90;;;26.10;63.70;;;;;;6116387;28;80497;-58
2022/08/29 10:02:15;;;;;;;15.73;6.82;;;25.90;63.80;;;;;;6091632;28;86002;-58
2022/08/29 10:05:16;;;;;;;12.98;7.95;;;25.60;64.30;;;;;;6096849;28;80690;-57
2022/08/29 10:08:16;;;;;;;10.73;7.03;;;25.60;64.50;;;;;;6116058;28;83893;-58
2022/08/29 10:11:17;;;;;;;11.70;6.68;;;25.60;64.60;;;;;;6101680;28;81251;-61
2022/08/29 10:14:17;;;;;;;10.27;6.72;;;25.70;64.60;;;;;;6118114;28;83050;-57
2022/08/29 10:20:37;;;;;;;13.60;7.90;;;25.90;64.50;;;;;;6118991;28;80749;-58
2022/08/29 10:23:38;;;;;;;10.70;6.68;;;25.80;64.70;;;;;;6122047;28;84010;-59
2022/08/29 10:26:38;;;;;;;14.45;5.90;;;25.70;64.70;;;;;;6122896;28;80191;-58
2022/08/29 10:29:39;;;;;;;11.05;6.40;;;25.90;64.90;;;;;;6116351;28;80956;-59
2022/08/29 10:32:39;;;;;;;10.55;6.22;;;26.10;64.90;;;;;;6123426;28;82745;-58
2022/08/29 10:35:40;;;;;;;16.95;7.60;;;26.10;64.30;;;;;;6121917;28;80382;-58
2022/08/29 10:38:40;;;;;;;13.70;7.20;;;26.10;64.20;;;;;;6108005;28;80735;-58
2022/08/29 10:41:41;;;;;;;20.30;7.25;;;26.10;64.10;;;;;;6125672;28;81119;-58
2022/08/29 10:44:41;;;;;;;10.77;6.72;;;26.20;64.20;;;;;;6099777;28;83229;-58
2022/08/29 10:47:42;;;;;;;12.32;5.90;;;26.40;64.10;;;;;;6119758;28;80993;-58
2022/08/29 10:50:43;;;;;;;9.15;5.82;;;26.30;63.50;;;;;;6125047;28;81097;-58
2022/08/29 10:53:43;;;;;;;9.77;6.03;;;26.20;63.80;;;;;;6125267;28;81626;-66
2022/08/29 10:56:44;;;;;;;15.35;7.53;;;26.20;63.00;;;;;;6128551;28;83049;-66
2022/08/29 10:59:45;;;;;;;9.98;6.80;;;26.10;62.30;;;;;;6124140;28;81030;-67
2022/08/29 11:02:45;;;;;;;13.20;6.03;;;26.10;62.00;;;;;;6125238;28;80025;-66
2022/08/29 11:05:46;;;;;;;9.85;5.32;;;26.20;63.00;;;;;;6126960;28;80392;-64
2022/08/29 11:08:47;;;;;;;8.57;5.53;;;26.30;63.10;;;;;;6125875;28;81532;-67
2022/08/29 11:11:47;;;;;;;8.30;5.15;;;26.00;61.70;;;;;;6101205;28;83344;-57
2022/08/29 11:14:48;;;;;;;9.40;5.50;;;26.00;62.50;;;;;;6116044;28;80249;-57
2022/08/29 11:17:48;;;;;;;10.05;5.80;;;26.00;62.00;;;;;;6124788;28;80243;-58
2022/08/29 11:20:49;;;;;;;9.50;5.88;;;26.20;61.70;;;;;;6115767;28;81012;-57
2022/08/29 11:23:49;;;;;;;16.02;5.75;;;26.30;61.70;;;;;;6124126;28;81526;-57
2022/08/29 11:26:50;;;;;;;11.93;5.40;;;26.40;61.30;;;;;;6124967;28;81647;-57
2022/08/29 11:29:50;;;;;;;7.95;4.75;;;26.60;61.90;;;;;;6123591;28;80342;-57
2022/08/29 11:32:51;;;;;;;9.13;5.97;;;26.70;61.30;;;;;;6124471;28;80514;-57
2022/08/29 11:35:52;;;;;;;10.82;5.88;;;26.70;61.20;;;;;;6122379;28;85488;-58
2022/08/29 11:38:53;;;;;;;8.52;5.22;;;26.70;61.30;;;;;;6124320;28;81507;-58
2022/08/29 11:41:54;;;;;;;10.45;5.30;;;26.90;61.30;;;;;;6128370;28;80163;-57
2022/08/29 11:44:54;;;;;;;9.05;6.45;;;26.90;60.70;;;;;;6125066;28;88518;-56
2022/08/29 11:47:56;;;;;;;10.30;5.78;;;26.80;60.90;;;;;;6124185;28;80483;-56
2022/08/29 11:50:56;;;;;;;7.05;5.57;;;26.70;60.40;;;;;;6125111;28;81157;-56
2022/08/29 11:53:57;;;;;;;11.30;4.97;;;26.50;59.50;;;;;;6084428;28;82647;-57
2022/08/29 11:56:57;;;;;;;12.18;5.75;;;26.60;60.40;;;;;;6102296;28;81608;-57
2022/08/29 11:59:58;;;;;;;7.60;5.07;;;26.70;60.80;;;;;;6096115;28;85353;-59
2022/08/29 12:02:58;;;;;;;7.68;4.82;;;26.80;60.20;;;;;;6090980;28;81136;-57
2022/08/29 12:05:59;;;;;;;7.65;4.95;;;26.80;60.20;;;;;;6133195;28;81552;-57
2022/08/29 12:09:00;;;;;;;7.82;4.40;;;26.70;60.20;;;;;;6116884;28;87451;-58
2022/08/29 12:12:00;;;;;;;6.55;4.85;;;26.70;60.50;;;;;;6108730;28;80514;-57
2022/08/29 12:15:01;;;;;;;12.05;4.65;;;26.70;60.30;;;;;;6116141;28;83418;-58
2022/08/29 12:18:01;;;;;;;9.38;6.10;;;26.70;60.70;;;;;;6117836;28;80940;-57
2022/08/29 12:21:02;;;;;;;8.40;5.55;;;26.70;60.50;;;;;;6136456;28;81650;-57
2022/08/29 12:24:03;;;;;;;11.88;5.53;;;26.80;60.00;;;;;;6117624;28;83784;-57
2022/08/29 12:27:03;;;;;;;8.52;5.43;;;26.70;60.20;;;;;;6121252;28;81327;-57
2022/08/29 12:30:04;;;;;;;12.27;5.03;;;26.70;59.00;;;;;;6113158;28;84830;-57
2022/08/29 12:33:05;;;;;;;11.25;5.22;;;26.70;59.30;;;;;;6113567;28;81369;-58
2022/08/29 12:36:06;;;;;;;15.45;5.47;;;26.70;58.70;;;;;;6109121;28;81469;-57
2022/08/29 12:39:06;;;;;;;30.83;6.10;;;26.70;59.40;;;;;;6111565;28;81546;-57
2022/08/29 12:42:07;;;;;;;9.07;5.88;;;26.80;59.30;;;;;;6086352;28;82904;-57
2022/08/29 12:45:07;;;;;;;20.60;7.72;;;26.90;59.30;;;;;;6089714;28;82536;-61
2022/08/29 12:48:08;;;;;;;13.30;6.60;;;26.80;58.40;;;;;;6100127;28;81867;-61
2022/08/29 12:51:08;;;;;;;18.83;6.40;;;26.70;58.00;;;;;;6103227;28;86261;-60
2022/08/29 12:54:09;;;;;;;9.88;6.13;;;26.60;59.00;;;;;;6098162;28;81045;-60
2022/08/29 12:57:09;;;;;;;8.15;5.63;;;26.70;58.70;;;;;;6107308;28;80850;-60
2022/08/29 13:00:10;;;;;;;8.45;5.57;;;26.60;58.70;;;;;;6088388;28;81634;-62
2022/08/29 13:03:11;;;;;;;11.05;5.65;;;26.70;59.00;;;;;;6099968;28;86123;-60
2022/08/29 13:06:12;;;;;;;7.68;5.55;;;26.70;58.10;;;;;;6099914;28;81208;-61
2022/08/29 13:09:15;;;;;;;9.75;5.45;;;26.70;58.60;;;;;;6093303;28;83370;-61
2022/08/29 13:12:15;;;;;;;12.82;6.65;;;26.70;58.40;;;;;;6105327;28;80684;-61
2022/08/29 13:15:16;;;;;;;12.73;6.28;;;26.80;58.60;;;;;;6109120;28;80474;-61
2022/08/29 13:18:16;;;;;;;7.25;5.65;;;26.80;58.20;;;;;;6106813;28;81415;-59
2022/08/29 13:21:17;;;;;;;6.63;4.85;;;26.80;58.70;;;;;;6112549;28;84969;-58
2022/08/29 13:24:18;;;;;;;12.02;6.43;;;26.80;58.20;;;;;;6114927;28;80779;-59
2022/08/29 13:27:18;;;;;;;9.90;4.88;;;26.70;58.60;;;;;;6116982;28;80985;-59
2022/08/29 13:30:19;;;;;;;13.63;6.18;;;26.80;58.60;;;;;;6118176;28;80652;-59
2022/08/29 13:33:20;;;;;;;9.48;5.38;;;26.70;58.40;;;;;;6112995;28;80272;-58
2022/08/29 13:36:20;;;;;;;11.55;6.55;;;26.60;58.10;;;;;;6097646;28;80320;-58
2022/08/29 13:39:24;;;;;;;12.70;4.90;;;26.50;58.40;;;;;;6103995;28;80363;-65
2022/08/29 13:42:25;;;;;;;13.48;4.95;;;26.70;58.80;;;;;;6095670;28;85824;-63
2022/08/29 13:45:25;;;;;;;10.35;5.13;;;26.80;59.10;;;;;;6106738;28;85316;-62
2022/08/29 13:48:26;;;;;;;9.07;4.90;;;26.70;58.10;;;;;;6116992;28;80707;-64
2022/08/29 13:51:27;;;;;;;5.82;4.32;;;26.70;58.70;;;;;;6105590;28;85311;-61
2022/08/29 13:54:28;;;;;;;7.30;4.35;;;26.70;58.30;;;;;;6113342;28;80390;-63
2022/08/29 13:57:29;;;;;;;6.30;5.07;;;26.70;57.80;;;;;;6119096;28;80467;-66
2022/08/29 14:00:32;;;;;;;16.55;4.57;;;26.80;59.40;;;;;;6109850;28;82244;-65
2022/08/29 14:03:32;;;;;;;8.60;4.88;;;26.80;58.20;;;;;;6118375;28;81009;-63
2022/08/29 14:06:33;;;;;;;6.30;5.13;;;26.70;57.20;;;;;;6114791;28;84883;-63
2022/08/29 14:09:34;;;;;;;12.98;4.35;;;26.70;57.40;;;;;;6111353;28;83585;-62
2022/08/29 14:12:34;;;;;;;10.40;4.95;;;26.70;56.90;;;;;;6116337;28;80222;-65
2022/08/29 14:15:35;;;;;;;6.43;4.30;;;26.70;57.60;;;;;;6113656;28;86513;-61
2022/08/29 14:18:35;;;;;;;6.30;4.45;;;26.70;56.90;;;;;;6114898;28;80958;-63
2022/08/29 14:21:36;;;;;;;8.43;4.53;;;26.80;56.80;;;;;;6110406;28;85807;-63
2022/08/29 14:24:37;;;;;;;6.72;4.70;;;26.90;57.70;;;;;;6097958;28;80478;-60
2022/08/29 14:27:38;;;;;;;10.57;4.88;;;26.80;56.90;;;;;;6097817;28;80528;-66
2022/08/29 14:30:38;;;;;;;5.78;3.97;;;26.90;56.50;;;;;;6103002;28;87884;-65
2022/08/29 14:33:38;;;;;;;7.38;4.05;;;26.80;57.00;;;;;;6123646;28;81454;-60
2022/08/29 14:36:39;;;;;;;6.10;4.30;;;26.90;56.90;;;;;;6109554;28;80583;-59
2022/08/29 14:39:39;;;;;;;8.85;4.93;;;26.90;56.60;;;;;;6122137;28;80744;-59
2022/08/29 14:42:40;;;;;;;9.88;4.88;;;26.90;57.10;;;;;;6122377;28;80467;-59
2022/08/29 14:45:40;;;;;;;6.88;4.35;;;26.80;57.40;;;;;;6114478;28;83730;-60
2022/08/29 14:48:41;;;;;;;9.80;4.47;;;26.90;57.70;;;;;;6118910;28;85243;-59
2022/08/29 14:51:43;;;;;;;10.45;4.40;;;26.90;58.50;;;;;;6115618;28;80520;-60
2022/08/29 14:54:43;;;;;;;10.38;5.15;;;27.00;58.30;;;;;;6023893;28;85332;-58
2022/08/29 14:57:44;;;;;;;7.32;4.70;;;26.90;57.30;;;;;;6109924;28;80933;-58
2022/08/29 15:00:44;;;;;;;7.05;5.30;;;26.90;56.60;;;;;;6105673;28;80666;-58
2022/08/29 15:03:45;;;;;;;7.05;3.85;;;26.90;57.90;;;;;;6124459;28;80495;-59
2022/08/29 15:06:45;;;;;;;9.88;4.82;;;26.90;56.80;;;;;;6104450;28;83458;-58
2022/08/29 15:09:46;;;;;;;9.35;4.78;;;26.80;55.40;;;;;;6104243;28;82396;-57
2022/08/29 15:12:46;;;;;;;6.80;3.97;;;26.80;56.30;;;;;;6099210;28;83311;-60
2022/08/29 15:15:47;;;;;;;4.68;3.60;;;26.80;55.40;;;;;;6105879;28;83266;-63
2022/08/29 15:18:47;;;;;;;6.80;4.05;;;26.80;56.60;;;;;;6117612;28;82333;-59
2022/08/29 15:21:48;;;;;;;7.82;4.28;;;26.80;56.50;;;;;;6119437;28;82321;-60
2022/08/29 15:24:49;;;;;;;6.18;3.83;;;26.80;56.20;;;;;;6117626;28;82191;-58
2022/08/29 15:27:49;;;;;;;9.13;3.97;;;26.80;57.10;;;;;;6111288;28;86047;-59
2022/08/29 15:30:50;;;;;;;8.32;4.13;;;26.90;56.50;;;;;;6108652;28;80479;-58
2022/08/29 15:33:50;;;;;;;6.13;3.72;;;26.80;56.70;;;;;;6122657;28;80183;-58
2022/08/29 15:36:51;;;;;;;8.57;4.13;;;26.80;56.20;;;;;;6121617;28;80398;-58